createdAt,value
2022-09-04T00:00:49.704Z,4.20
2022-09-04T00:01:49.687Z,5.70
2022-09-04T00:02:49.686Z,4.60
2022-09-04T00:03:50.586Z,5.10
2022-09-04T00:04:49.823Z,4.60
2022-09-04T00:05:49.649Z,4.80
2022-09-04T00:06:49.637Z,4.00
2022-09-04T00:07:49.606Z,5.60
2022-09-04T00:08:49.617Z,2.60
2022-09-04T00:09:49.592Z,4.80
2022-09-04T00:10:49.588Z,4.10
2022-09-04T00:11:49.566Z,4.10
2022-09-04T00:12:49.569Z,3.50
2022-09-04T00:13:49.568Z,3.60
2022-09-04T00:14:49.577Z,5.70
2022-09-04T00:15:49.540Z,4.90
2022-09-04T00:16:49.563Z,4.00
2022-09-04T00:17:49.527Z,3.90
2022-09-04T00:18:49.569Z,3.80
2022-09-04T00:19:49.488Z,4.00
2022-09-04T00:20:49.678Z,4.80
2022-09-04T00:21:49.457Z,5.00
2022-09-04T00:22:49.472Z,7.30
2022-09-04T00:23:49.441Z,4.90
2022-09-04T00:24:49.447Z,2.90
2022-09-04T00:25:49.846Z,4.10
2022-09-04T00:26:49.419Z,4.90
2022-09-04T00:27:49.388Z,4.40
2022-09-04T00:28:49.397Z,4.70
2022-09-04T00:29:49.461Z,3.60
2022-09-04T00:30:49.448Z,3.50
2022-09-04T00:31:49.347Z,3.90
2022-09-04T00:32:49.357Z,4.20
2022-09-04T00:33:49.327Z,3.70
2022-09-04T00:34:49.327Z,4.30
2022-09-04T00:35:49.309Z,4.60
2022-09-04T00:36:50.351Z,4.00
2022-09-04T00:37:49.325Z,4.20
2022-09-04T00:38:49.311Z,5.00
2022-09-04T00:39:49.387Z,4.10
2022-09-04T00:40:49.281Z,4.30
2022-09-04T00:41:49.237Z,5.50
2022-09-04T00:42:49.256Z,5.00
2022-09-04T00:43:49.220Z,4.30
2022-09-04T00:44:49.237Z,4.70
2022-09-04T00:45:49.240Z,5.50
2022-09-04T00:46:49.190Z,5.90
2022-09-04T00:47:49.187Z,5.20
2022-09-04T00:48:49.165Z,5.10
2022-09-04T00:49:49.157Z,4.40
2022-09-04T00:50:49.128Z,5.00
2022-09-04T00:51:49.146Z,6.30
2022-09-04T00:52:49.118Z,5.40
2022-09-04T00:53:49.107Z,5.10
2022-09-04T00:54:49.090Z,5.70
2022-09-04T00:55:49.098Z,5.60
2022-09-04T00:56:49.069Z,6.10
2022-09-04T00:57:49.074Z,5.40
2022-09-04T00:58:49.058Z,7.80
2022-09-04T00:59:49.057Z,5.10
2022-09-04T01:00:49.074Z,5.60
2022-09-04T01:01:49.135Z,4.60
2022-09-04T01:02:49.026Z,4.70
2022-09-04T01:03:49.007Z,5.70
2022-09-04T01:04:49.135Z,4.90
2022-09-04T01:05:48.976Z,6.10
2022-09-04T01:06:48.950Z,5.30
2022-09-04T01:07:48.947Z,7.30
2022-09-04T01:08:48.953Z,5.10
2022-09-04T01:09:49.951Z,4.20
2022-09-04T01:10:48.906Z,6.20
2022-09-04T01:11:48.908Z,5.70
2022-09-04T01:12:48.879Z,6.30
2022-09-04T01:13:48.878Z,5.00
2022-09-04T01:14:49.943Z,5.20
2022-09-04T01:15:48.859Z,4.50
2022-09-04T01:16:48.891Z,4.80
2022-09-04T01:17:48.838Z,4.50
2022-09-04T01:18:48.807Z,6.60
2022-09-04T01:19:48.817Z,6.50
2022-09-04T01:20:48.787Z,6.30
2022-09-04T01:21:48.788Z,6.20
2022-09-04T01:22:48.768Z,5.30
2022-09-04T01:23:48.759Z,5.00
2022-09-04T01:24:48.748Z,5.60
2022-09-04T01:25:48.747Z,5.40
2022-09-04T01:26:48.718Z,6.30
2022-09-04T01:27:48.724Z,6.10
2022-09-04T01:28:48.697Z,7.00
2022-09-04T01:29:48.695Z,5.70
2022-09-04T01:30:48.678Z,5.70
2022-09-04T01:31:48.784Z,5.10
2022-09-04T01:32:48.647Z,5.30
2022-09-04T01:33:48.648Z,5.10
2022-09-04T01:34:48.626Z,5.40
2022-09-04T01:35:48.657Z,6.40
2022-09-04T01:36:48.608Z,4.60
2022-09-04T01:37:48.605Z,5.00
2022-09-04T01:38:48.588Z,7.60
2022-09-04T01:39:48.651Z,5.10
2022-09-04T01:40:48.558Z,6.60
2022-09-04T01:41:48.558Z,5.20
2022-09-04T01:42:48.547Z,4.00
2022-09-04T01:43:48.537Z,4.90
2022-09-04T01:44:48.519Z,4.10
2022-09-04T01:45:48.583Z,4.90
2022-09-04T01:46:48.496Z,5.70
2022-09-04T01:47:48.509Z,5.80
2022-09-04T01:48:48.747Z,6.10
2022-09-04T01:49:48.475Z,4.90
2022-09-04T01:50:48.465Z,5.50
2022-09-04T01:51:48.448Z,5.10
2022-09-04T01:52:48.426Z,4.30
2022-09-04T01:53:48.427Z,6.60
2022-09-04T01:54:48.404Z,4.60
2022-09-04T01:55:48.397Z,5.60
2022-09-04T01:56:48.389Z,5.80
2022-09-04T01:57:48.380Z,6.10
2022-09-04T01:58:48.357Z,4.70
2022-09-04T01:59:53.020Z,5.60
2022-09-04T02:00:49.416Z,4.20
2022-09-04T02:01:48.426Z,5.90
2022-09-04T02:02:48.867Z,5.10
2022-09-04T02:03:48.309Z,5.40
2022-09-04T02:04:48.307Z,5.00
2022-09-04T02:05:48.299Z,6.70
2022-09-04T02:06:48.259Z,6.70
2022-09-04T02:07:48.268Z,5.60
2022-09-04T02:08:48.236Z,4.80
2022-09-04T02:09:48.238Z,5.20
2022-09-04T02:10:48.299Z,6.80
2022-09-04T02:11:48.227Z,4.00
2022-09-04T02:12:48.198Z,5.10
2022-09-04T02:13:48.207Z,4.50
2022-09-04T02:14:48.177Z,4.80
2022-09-04T02:15:48.178Z,4.50
2022-09-04T02:16:48.197Z,4.30
2022-09-04T02:17:48.156Z,5.60
2022-09-04T02:18:48.127Z,4.30
2022-09-04T02:19:48.139Z,5.00
2022-09-04T02:20:48.107Z,4.40
2022-09-04T02:21:48.139Z,5.30
2022-09-04T02:22:48.087Z,3.70
2022-09-04T02:23:48.158Z,5.00
2022-09-04T02:24:48.065Z,4.50
2022-09-04T02:25:48.057Z,5.10
2022-09-04T02:26:48.043Z,4.00
2022-09-04T02:27:48.039Z,6.20
2022-09-04T02:28:48.025Z,4.40
2022-09-04T02:29:48.021Z,4.70
2022-09-04T02:30:48.006Z,5.80
2022-09-04T02:31:49.086Z,5.70
2022-09-04T02:32:47.978Z,7.10
2022-09-04T02:33:47.978Z,4.70
2022-09-04T02:34:48.347Z,4.90
2022-09-04T02:35:47.958Z,5.00
2022-09-04T02:36:50.373Z,7.70
2022-09-04T02:37:47.939Z,5.60
2022-09-04T02:38:47.896Z,4.60
2022-09-04T02:39:48.144Z,5.20
2022-09-04T02:40:48.167Z,4.20
2022-09-04T02:41:47.894Z,7.00
2022-09-04T02:42:47.861Z,6.00
2022-09-04T02:43:47.857Z,6.70
2022-09-04T02:44:47.837Z,7.30
2022-09-04T02:45:47.836Z,6.70
2022-09-04T02:46:47.878Z,8.30
2022-09-04T02:47:47.808Z,6.70
2022-09-04T02:48:48.449Z,7.20
2022-09-04T02:49:47.788Z,8.70
2022-09-04T02:50:47.775Z,7.90
2022-09-04T02:51:47.768Z,9.10
2022-09-04T02:52:47.746Z,8.20
2022-09-04T02:53:47.747Z,7.00
2022-09-04T02:54:47.717Z,7.00
2022-09-04T02:55:47.728Z,8.60
2022-09-04T02:56:47.702Z,8.40
2022-09-04T02:57:47.749Z,7.00
2022-09-04T02:58:47.701Z,6.20
2022-09-04T02:59:47.802Z,7.50
2022-09-04T03:00:47.745Z,6.60
2022-09-04T03:01:49.884Z,6.20
2022-09-04T03:02:48.178Z,7.30
2022-09-04T03:03:47.717Z,5.80
2022-09-04T03:04:47.606Z,5.80
2022-09-04T03:05:47.620Z,7.10
2022-09-04T03:06:47.611Z,6.80
2022-09-04T03:07:47.644Z,6.30
2022-09-04T03:08:47.648Z,4.70
2022-09-04T03:09:47.567Z,7.90
2022-09-04T03:10:47.627Z,5.80
2022-09-04T03:11:47.543Z,6.10
2022-09-04T03:12:47.526Z,6.50
2022-09-04T03:13:47.537Z,5.90
2022-09-04T03:14:47.500Z,5.10
2022-09-04T03:15:47.532Z,4.40
2022-09-04T03:16:47.467Z,6.70
2022-09-04T03:17:47.485Z,5.30
2022-09-04T03:18:47.482Z,5.40
2022-09-04T03:19:47.456Z,6.30
2022-09-04T03:20:48.230Z,7.70
2022-09-04T03:21:47.456Z,5.00
2022-09-04T03:22:47.457Z,4.70
2022-09-04T03:23:48.197Z,5.30
2022-09-04T03:24:47.755Z,6.00
2022-09-04T03:25:47.394Z,5.50
2022-09-04T03:26:47.356Z,7.10
2022-09-04T03:27:47.357Z,5.50
2022-09-04T03:28:47.350Z,6.40
2022-09-04T03:29:48.129Z,7.40
2022-09-04T03:30:47.357Z,7.10
2022-09-04T03:31:47.368Z,5.20
2022-09-04T03:32:47.307Z,5.60
2022-09-04T03:33:48.037Z,6.30
2022-09-04T03:34:47.320Z,6.00
2022-09-04T03:35:47.276Z,5.40
2022-09-04T03:36:47.244Z,5.50
2022-09-04T03:37:47.255Z,7.10
2022-09-04T03:38:47.241Z,6.50
2022-09-04T03:39:47.803Z,6.90
2022-09-04T03:40:48.097Z,5.10
2022-09-04T03:41:47.266Z,6.60
2022-09-04T03:42:47.298Z,5.80
2022-09-04T03:43:47.187Z,6.20
2022-09-04T03:44:47.276Z,6.50
2022-09-04T03:45:48.156Z,4.50
2022-09-04T03:46:48.090Z,6.10
2022-09-04T03:47:47.148Z,6.30
2022-09-04T03:48:47.846Z,6.80
2022-09-04T03:49:47.141Z,7.20
2022-09-04T03:50:47.907Z,6.00
2022-09-04T03:51:47.806Z,6.90
2022-09-04T03:52:47.106Z,5.60
2022-09-04T03:53:47.876Z,5.00
2022-09-04T03:54:47.777Z,5.10
2022-09-04T03:55:47.106Z,4.40
2022-09-04T03:56:47.837Z,4.30
2022-09-04T03:57:47.057Z,5.60
2022-09-04T03:58:47.017Z,5.60
2022-09-04T03:59:47.049Z,4.80
2022-09-04T04:00:47.069Z,6.50
2022-09-04T04:01:47.629Z,4.60
2022-09-04T04:02:47.813Z,6.30
2022-09-04T04:03:46.984Z,6.00
2022-09-04T04:04:46.970Z,3.80
2022-09-04T04:05:48.296Z,6.30
2022-09-04T04:06:47.656Z,6.10
2022-09-04T04:07:46.953Z,6.60
2022-09-04T04:08:46.951Z,6.40
2022-09-04T04:09:47.626Z,5.70
2022-09-04T04:10:46.875Z,5.20
2022-09-04T04:11:47.265Z,6.90
2022-09-04T04:12:46.885Z,6.10
2022-09-04T04:13:47.745Z,4.40
2022-09-04T04:14:47.673Z,9.50
2022-09-04T04:15:46.895Z,5.70
2022-09-04T04:16:48.010Z,6.10
2022-09-04T04:17:47.796Z,6.00
2022-09-04T04:18:46.807Z,6.40
2022-09-04T04:19:47.685Z,5.80
2022-09-04T04:20:47.585Z,6.20
2022-09-04T04:21:47.487Z,5.70
2022-09-04T04:22:46.767Z,4.60
2022-09-04T04:23:47.566Z,5.40
2022-09-04T04:24:46.766Z,6.60
2022-09-04T04:25:47.618Z,6.30
2022-09-04T04:26:50.543Z,7.10
2022-09-04T04:27:47.725Z,4.30
2022-09-04T04:28:47.586Z,7.70
2022-09-04T04:29:46.696Z,5.90
2022-09-04T04:30:46.675Z,6.20
2022-09-04T04:31:46.685Z,6.00
2022-09-04T04:32:46.985Z,5.70
2022-09-04T04:33:46.640Z,6.80
2022-09-04T04:34:46.997Z,4.90
2022-09-04T04:35:46.615Z,4.90
2022-09-04T04:36:46.585Z,5.90
2022-09-04T04:37:47.485Z,4.80
2022-09-04T04:38:47.395Z,4.90
2022-09-04T04:39:46.660Z,5.90
2022-09-04T04:40:46.527Z,4.90
2022-09-04T04:41:47.365Z,5.30
2022-09-04T04:42:47.266Z,6.00
2022-09-04T04:43:47.430Z,5.90
2022-09-04T04:44:46.525Z,5.30
2022-09-04T04:45:46.565Z,3.80
2022-09-04T04:46:46.760Z,5.60
2022-09-04T04:47:46.886Z,5.30
2022-09-04T04:48:46.444Z,3.80
2022-09-04T04:49:46.506Z,6.30
2022-09-04T04:50:47.007Z,6.90
2022-09-04T04:51:46.414Z,4.70
2022-09-04T04:52:47.015Z,5.70
2022-09-04T04:53:47.237Z,5.60
2022-09-04T04:54:47.145Z,5.50
2022-09-04T04:55:46.375Z,5.90
2022-09-04T04:56:47.104Z,3.80
2022-09-04T04:57:47.140Z,5.40
2022-09-04T04:58:46.344Z,4.60
2022-09-04T04:59:47.197Z,6.30
2022-09-04T05:00:46.336Z,4.50
2022-09-04T05:01:46.454Z,4.90
2022-09-04T05:02:47.209Z,4.00
2022-09-04T05:03:47.043Z,4.90
2022-09-04T05:04:47.207Z,4.70
2022-09-04T05:05:46.305Z,4.40
2022-09-04T05:06:46.274Z,5.00
2022-09-04T05:07:46.216Z,6.70
2022-09-04T05:08:47.074Z,6.10
2022-09-04T05:09:46.216Z,7.10
2022-09-04T05:10:46.213Z,5.60
2022-09-04T05:11:46.194Z,6.20
2022-09-04T05:12:46.213Z,5.60
2022-09-04T05:13:46.192Z,6.40
2022-09-04T05:14:46.195Z,5.10
2022-09-04T05:16:07.538Z,5.00
2022-09-04T05:16:48.504Z,5.10
2022-09-04T05:17:46.124Z,5.80
2022-09-04T05:18:46.162Z,4.30
2022-09-04T05:19:46.134Z,7.30
2022-09-04T05:20:46.132Z,6.20
2022-09-04T05:21:46.094Z,5.60
2022-09-04T05:22:46.793Z,6.40
2022-09-04T05:23:46.055Z,4.60
2022-09-04T05:24:46.083Z,6.20
2022-09-04T05:25:46.013Z,6.90
2022-09-04T05:26:46.882Z,5.20
2022-09-04T05:27:46.003Z,4.50
2022-09-04T05:28:46.034Z,5.10
2022-09-04T05:29:46.087Z,5.00
2022-09-04T05:30:46.132Z,5.00
2022-09-04T05:31:46.915Z,5.20
2022-09-04T05:32:46.114Z,4.60
2022-09-04T05:33:46.104Z,4.10
2022-09-04T05:34:45.933Z,4.10
2022-09-04T05:35:45.974Z,6.00
2022-09-04T05:36:45.983Z,4.80
2022-09-04T05:37:46.861Z,4.30
2022-09-04T05:38:46.762Z,6.30
2022-09-04T05:39:45.945Z,5.50
2022-09-04T05:40:45.867Z,5.90
2022-09-04T05:41:45.863Z,3.20
2022-09-04T05:42:45.854Z,4.00
2022-09-04T05:43:46.532Z,5.50
2022-09-04T05:44:45.862Z,5.80
2022-09-04T05:45:45.947Z,5.00
2022-09-04T05:46:45.865Z,5.70
2022-09-04T05:47:47.682Z,4.80
2022-09-04T05:48:46.567Z,4.60
2022-09-04T05:49:45.777Z,6.20
2022-09-04T05:50:45.931Z,4.60
2022-09-04T05:51:45.724Z,7.30
2022-09-04T05:52:45.749Z,5.30
2022-09-04T05:53:45.750Z,7.20
2022-09-04T05:54:46.516Z,4.20
2022-09-04T05:55:46.403Z,7.30
2022-09-04T05:56:45.702Z,6.60
2022-09-04T05:57:45.653Z,5.70
2022-09-04T05:58:45.683Z,4.70
2022-09-04T05:59:45.662Z,5.90
2022-09-04T06:00:45.721Z,3.70
2022-09-04T06:01:49.883Z,5.90
2022-09-04T06:02:46.668Z,5.50
2022-09-04T06:03:46.411Z,6.00
2022-09-04T06:04:46.318Z,5.80
2022-09-04T06:05:45.583Z,4.30
2022-09-04T06:06:45.586Z,5.90
2022-09-04T06:07:45.733Z,4.60
2022-09-04T06:08:46.239Z,4.20
2022-09-04T06:09:45.804Z,5.90
2022-09-04T06:10:45.543Z,5.70
2022-09-04T06:11:45.496Z,4.60
2022-09-04T06:12:45.503Z,7.60
2022-09-04T06:13:45.512Z,7.30
2022-09-04T06:14:45.491Z,7.60
2022-09-04T06:15:45.560Z,6.30
2022-09-04T06:16:45.472Z,5.20
2022-09-04T06:17:45.453Z,4.80
2022-09-04T06:18:46.244Z,7.50
2022-09-04T06:19:45.443Z,5.60
2022-09-04T06:20:45.432Z,6.60
2022-09-04T06:21:45.442Z,5.20
2022-09-04T06:22:48.083Z,5.20
2022-09-04T06:23:45.477Z,4.30
2022-09-04T06:24:45.472Z,6.10
2022-09-04T06:25:46.082Z,4.10
2022-09-04T06:26:45.402Z,5.50
2022-09-04T06:27:45.334Z,4.40
2022-09-04T06:28:46.260Z,6.10
2022-09-04T06:29:45.306Z,5.00
2022-09-04T06:30:45.312Z,5.40
2022-09-04T06:31:45.284Z,6.00
2022-09-04T06:32:45.283Z,5.70
2022-09-04T06:33:45.543Z,4.60
2022-09-04T06:34:45.272Z,5.10
2022-09-04T06:35:45.245Z,5.20
2022-09-04T06:36:45.286Z,5.00
2022-09-04T06:37:45.673Z,5.00
2022-09-04T06:38:45.242Z,5.70
2022-09-04T06:39:45.231Z,5.40
2022-09-04T06:40:45.215Z,5.20
2022-09-04T06:41:45.703Z,6.50
2022-09-04T06:42:45.170Z,6.20
2022-09-04T06:43:45.302Z,6.40
2022-09-04T06:44:45.233Z,4.60
2022-09-04T06:45:45.133Z,3.60
2022-09-04T06:46:45.208Z,3.70
2022-09-04T06:47:45.103Z,3.30
2022-09-04T06:48:45.205Z,4.80
2022-09-04T06:49:45.072Z,7.20
2022-09-04T06:50:45.243Z,4.60
2022-09-04T06:51:45.055Z,5.30
2022-09-04T06:52:45.053Z,5.20
2022-09-04T06:53:45.032Z,4.60
2022-09-04T06:54:45.083Z,5.20
2022-09-04T06:55:45.003Z,4.80
2022-09-04T06:56:45.014Z,2.90
2022-09-04T06:57:44.983Z,5.30
2022-09-04T06:58:44.985Z,4.50
2022-09-04T06:59:44.976Z,5.80
2022-09-04T07:00:44.965Z,5.10
2022-09-04T07:01:45.005Z,4.40
2022-09-04T07:02:45.132Z,5.70
2022-09-04T07:03:44.927Z,5.00
2022-09-04T07:04:44.994Z,6.20
2022-09-04T07:05:45.607Z,5.30
2022-09-04T07:06:44.903Z,5.40
2022-09-04T07:07:44.876Z,7.20
2022-09-04T07:08:44.975Z,5.50
2022-09-04T07:09:44.844Z,5.70
2022-09-04T07:10:44.854Z,5.00
2022-09-04T07:11:44.832Z,5.30
2022-09-04T07:12:44.862Z,5.10
2022-09-04T07:13:44.813Z,4.20
2022-09-04T07:14:44.816Z,5.10
2022-09-04T07:15:44.881Z,4.90
2022-09-04T07:16:44.795Z,4.80
2022-09-04T07:17:44.774Z,4.10
2022-09-04T07:18:45.244Z,4.00
2022-09-04T07:19:44.734Z,6.10
2022-09-04T07:20:44.744Z,3.70
2022-09-04T07:21:44.765Z,4.70
2022-09-04T07:22:44.723Z,4.40
2022-09-04T07:23:44.705Z,4.60
2022-09-04T07:24:45.545Z,4.10
2022-09-04T07:25:44.723Z,6.30
2022-09-04T07:26:44.984Z,4.50
2022-09-04T07:27:44.977Z,4.60
2022-09-04T07:28:45.104Z,4.60
2022-09-04T07:29:44.624Z,3.00
2022-09-04T07:30:44.647Z,4.10
2022-09-04T07:31:44.659Z,4.20
2022-09-04T07:32:44.614Z,4.10
2022-09-04T07:33:44.604Z,4.10
2022-09-04T07:34:44.595Z,4.80
2022-09-04T07:35:44.574Z,4.70
2022-09-04T07:36:44.568Z,5.10
2022-09-04T07:37:44.554Z,3.30
2022-09-04T07:38:44.551Z,3.40
2022-09-04T07:39:45.593Z,3.20
2022-09-04T07:40:44.528Z,4.00
2022-09-04T07:41:44.506Z,3.60
2022-09-04T07:42:44.485Z,5.40
2022-09-04T07:43:44.488Z,4.50
2022-09-04T07:44:44.466Z,4.60
2022-09-04T07:45:44.465Z,4.30
2022-09-04T07:46:44.627Z,3.90
2022-09-04T07:47:44.445Z,3.60
2022-09-04T07:48:44.615Z,3.50
2022-09-04T07:49:44.434Z,5.10
2022-09-04T07:50:44.417Z,3.60
2022-09-04T07:51:44.397Z,4.40
2022-09-04T07:52:44.395Z,3.00
2022-09-04T07:53:44.366Z,3.00
2022-09-04T07:54:44.656Z,3.30
2022-09-04T07:55:44.396Z,3.40
2022-09-04T07:56:44.328Z,3.20
2022-09-04T07:57:44.326Z,3.60
2022-09-04T07:58:44.309Z,3.80
2022-09-04T07:59:44.306Z,3.90
2022-09-04T08:00:44.295Z,3.50
2022-09-04T08:01:44.339Z,3.30
2022-09-04T08:02:44.997Z,3.60
2022-09-04T08:03:53.968Z,3.00
2022-09-04T08:04:45.276Z,3.50
2022-09-04T08:05:44.247Z,4.90
2022-09-04T08:06:44.229Z,4.00
2022-09-04T08:07:44.220Z,5.40
2022-09-04T08:08:44.197Z,3.60
2022-09-04T08:09:44.207Z,4.40
2022-09-04T08:10:44.181Z,4.50
2022-09-04T08:11:44.182Z,4.50
2022-09-04T08:12:44.166Z,2.80
2022-09-04T08:13:44.140Z,4.90
2022-09-04T08:14:44.147Z,3.40
2022-09-04T08:15:44.193Z,3.10
2022-09-04T08:16:44.107Z,3.80
2022-09-04T08:17:44.127Z,2.80
2022-09-04T08:18:44.103Z,2.70
2022-09-04T08:19:44.069Z,3.30
2022-09-04T08:20:44.069Z,2.80
2022-09-04T08:21:44.057Z,3.30
2022-09-04T08:22:44.127Z,2.10
2022-09-04T08:23:44.057Z,3.80
2022-09-04T08:24:44.027Z,3.50
2022-09-04T08:25:44.000Z,3.20
2022-09-04T08:26:44.007Z,3.90
2022-09-04T08:27:44.477Z,2.80
2022-09-04T08:28:46.285Z,2.80
2022-09-04T08:29:43.967Z,4.20
2022-09-04T08:30:44.004Z,3.10
2022-09-04T08:31:43.937Z,3.40
2022-09-04T08:32:43.948Z,2.50
2022-09-04T08:33:43.928Z,2.70
2022-09-04T08:34:43.918Z,2.00
2022-09-04T08:35:43.898Z,3.00
2022-09-04T08:36:43.899Z,4.20
2022-09-04T08:37:43.868Z,2.90
2022-09-04T08:38:43.868Z,3.30
2022-09-04T08:39:43.910Z,3.60
2022-09-04T08:40:43.880Z,4.60
2022-09-04T08:41:43.837Z,2.90
2022-09-04T08:42:43.841Z,3.30
2022-09-04T08:43:43.819Z,3.50
2022-09-04T08:44:43.831Z,3.20
2022-09-04T08:45:43.791Z,2.20
2022-09-04T08:46:43.831Z,3.10
2022-09-04T08:47:43.768Z,2.70
2022-09-04T08:48:43.776Z,2.70
2022-09-04T08:49:43.740Z,2.20
2022-09-04T08:50:43.751Z,4.80
2022-09-04T08:51:43.718Z,3.40
2022-09-04T08:52:43.732Z,2.40
2022-09-04T08:53:43.729Z,3.40
2022-09-04T08:54:43.701Z,2.50
2022-09-04T08:55:43.678Z,3.10
2022-09-04T08:56:43.676Z,3.90
2022-09-04T08:57:43.649Z,2.30
2022-09-04T08:58:47.668Z,2.40
2022-09-04T08:59:43.635Z,2.10
2022-09-04T09:00:43.632Z,2.80
2022-09-04T09:01:43.635Z,2.60
2022-09-04T09:02:43.659Z,2.00
2022-09-04T09:03:43.599Z,2.50
2022-09-04T09:04:43.600Z,1.60
2022-09-04T09:05:43.560Z,2.50
2022-09-04T09:06:43.560Z,2.40
2022-09-04T09:07:43.541Z,1.70
2022-09-04T09:08:43.554Z,3.00
2022-09-04T09:09:43.541Z,5.10
2022-09-04T09:10:43.520Z,2.70
2022-09-04T09:11:44.238Z,2.60
2022-09-04T09:12:43.519Z,3.10
2022-09-04T09:13:43.495Z,4.00
2022-09-04T09:14:43.488Z,2.10
2022-09-04T09:15:43.483Z,2.90
2022-09-04T09:16:43.485Z,1.90
2022-09-04T09:17:43.441Z,3.00
2022-09-04T09:18:43.430Z,3.70
2022-09-04T09:19:43.421Z,2.50
2022-09-04T09:20:43.391Z,2.80
2022-09-04T09:21:43.402Z,2.70
2022-09-04T09:22:43.397Z,2.30
2022-09-04T09:23:43.382Z,4.40
2022-09-04T09:24:43.347Z,2.60
2022-09-04T09:25:44.107Z,1.80
2022-09-04T09:26:43.332Z,3.80
2022-09-04T09:27:43.361Z,2.70
2022-09-04T09:28:43.382Z,3.90
2022-09-04T09:29:43.320Z,3.80
2022-09-04T09:30:43.351Z,3.00
2022-09-04T09:31:43.292Z,3.20
2022-09-04T09:32:43.290Z,2.20
2022-09-04T09:33:43.301Z,3.20
2022-09-04T09:34:43.242Z,3.40
2022-09-04T09:35:43.255Z,2.20
2022-09-04T09:36:43.234Z,3.40
2022-09-04T09:37:43.271Z,1.60
2022-09-04T09:38:43.203Z,1.40
2022-09-04T09:39:43.264Z,1.80
2022-09-04T09:40:43.188Z,1.60
2022-09-04T09:41:43.177Z,1.40
2022-09-04T09:42:43.153Z,2.40
2022-09-04T09:43:43.164Z,2.90
2022-09-04T09:44:43.875Z,3.00
2022-09-04T09:45:43.204Z,2.90
2022-09-04T09:46:43.113Z,2.60
2022-09-04T09:47:43.123Z,2.80
2022-09-04T09:48:43.085Z,2.70
2022-09-04T09:49:43.125Z,3.60
2022-09-04T09:50:43.194Z,1.30
2022-09-04T09:51:43.076Z,2.90
2022-09-04T09:52:43.043Z,2.90
2022-09-04T09:53:47.070Z,2.30
2022-09-04T09:54:43.044Z,2.90
2022-09-04T09:55:43.036Z,3.50
2022-09-04T09:56:43.005Z,3.20
2022-09-04T09:57:44.033Z,2.30
2022-09-04T09:58:42.974Z,2.40
2022-09-04T09:59:42.979Z,2.30
2022-09-04T10:00:43.875Z,2.80
2022-09-04T10:01:43.064Z,5.30
2022-09-04T10:02:43.732Z,5.20
2022-09-04T10:03:43.017Z,2.30
2022-09-04T10:04:42.925Z,3.90
2022-09-04T10:05:42.945Z,2.20
2022-09-04T10:06:42.895Z,3.60
2022-09-04T10:07:42.906Z,4.30
2022-09-04T10:08:42.877Z,2.10
2022-09-04T10:09:42.879Z,4.10
2022-09-04T10:10:42.876Z,2.60
2022-09-04T10:11:42.856Z,2.80
2022-09-04T10:12:42.828Z,3.40
2022-09-04T10:13:42.826Z,2.10
2022-09-04T10:14:42.798Z,2.40
2022-09-04T10:15:42.806Z,4.30
2022-09-04T10:16:42.909Z,2.60
2022-09-04T10:17:43.531Z,6.70
2022-09-04T10:18:42.788Z,2.40
2022-09-04T10:19:42.793Z,3.50
2022-09-04T10:20:42.738Z,4.30
2022-09-04T10:21:42.737Z,5.50
2022-09-04T10:22:42.748Z,5.20
2022-09-04T10:23:42.733Z,3.40
2022-09-04T10:24:42.709Z,4.90
2022-09-04T10:25:42.712Z,4.50
2022-09-04T10:26:42.681Z,3.10
2022-09-04T10:27:44.094Z,4.00
2022-09-04T10:28:42.675Z,5.10
2022-09-04T10:29:42.708Z,7.20
2022-09-04T10:30:43.397Z,2.80
2022-09-04T10:31:42.637Z,3.10
2022-09-04T10:32:42.610Z,5.20
2022-09-04T10:33:42.629Z,3.10
2022-09-04T10:34:42.593Z,5.30
2022-09-04T10:35:42.600Z,4.30
2022-09-04T10:36:43.188Z,3.60
2022-09-04T10:37:42.571Z,2.60
2022-09-04T10:38:42.541Z,2.40
2022-09-04T10:39:42.661Z,3.40
2022-09-04T10:40:45.177Z,4.10
2022-09-04T10:41:42.549Z,5.50
2022-09-04T10:42:42.720Z,2.70
2022-09-04T10:43:42.509Z,2.80
2022-09-04T10:44:42.508Z,2.80
2022-09-04T10:45:42.994Z,2.90
2022-09-04T10:46:42.460Z,3.20
2022-09-04T10:47:42.473Z,2.70
2022-09-04T10:48:42.433Z,2.30
2022-09-04T10:49:43.273Z,4.20
2022-09-04T10:50:43.222Z,2.10
2022-09-04T10:51:42.444Z,3.00
2022-09-04T10:52:42.400Z,2.70
2022-09-04T10:53:42.425Z,4.60
2022-09-04T10:54:42.392Z,6.20
2022-09-04T10:55:42.446Z,3.10
2022-09-04T10:56:42.351Z,5.30
2022-09-04T10:57:42.353Z,3.60
2022-09-04T10:58:42.354Z,3.10
2022-09-04T10:59:42.358Z,2.40
2022-09-04T11:00:42.483Z,4.70
2022-09-04T11:01:43.143Z,3.30
2022-09-04T11:02:43.153Z,2.40
2022-09-04T11:03:42.293Z,2.40
2022-09-04T11:04:42.281Z,3.70
2022-09-04T11:05:43.106Z,2.40
2022-09-04T11:06:42.274Z,2.80
2022-09-04T11:07:43.081Z,2.60
2022-09-04T11:08:42.773Z,2.70
2022-09-04T11:09:42.225Z,3.20
2022-09-04T11:10:42.273Z,2.40
2022-09-04T11:11:42.243Z,2.00
2022-09-04T11:12:42.884Z,1.90
2022-09-04T11:13:42.195Z,2.30
2022-09-04T11:14:42.173Z,2.10
2022-09-04T11:15:42.185Z,2.30
2022-09-04T11:16:42.608Z,2.50
2022-09-04T11:17:42.884Z,3.60
2022-09-04T11:18:42.825Z,2.70
2022-09-04T11:19:42.165Z,1.80
2022-09-04T11:20:42.126Z,2.50
2022-09-04T11:21:42.137Z,2.20
2022-09-04T11:22:42.074Z,3.40
2022-09-04T11:23:42.836Z,2.20
2022-09-04T11:24:42.057Z,1.60
2022-09-04T11:25:42.696Z,2.20
2022-09-04T11:26:42.705Z,3.60
2022-09-04T11:27:42.366Z,2.50
2022-09-04T11:28:42.125Z,2.60
2022-09-04T11:29:42.238Z,2.70
2022-09-04T11:30:47.860Z,2.90
2022-09-04T11:31:43.163Z,3.10
2022-09-04T11:32:42.727Z,2.80
2022-09-04T11:33:41.983Z,3.10
2022-09-04T11:34:42.000Z,2.90
2022-09-04T11:35:42.086Z,2.60
2022-09-04T11:36:41.928Z,2.10
2022-09-04T11:37:42.276Z,2.10
2022-09-04T11:38:41.925Z,2.30
2022-09-04T11:39:42.012Z,2.10
2022-09-04T11:40:42.167Z,2.20
2022-09-04T11:41:41.879Z,3.00
2022-09-04T11:42:41.947Z,2.80
2022-09-04T11:43:41.891Z,3.00
2022-09-04T11:44:43.139Z,1.80
2022-09-04T11:45:41.951Z,2.90
2022-09-04T11:46:41.826Z,2.00
2022-09-04T11:47:41.819Z,4.30
2022-09-04T11:48:42.328Z,2.50
2022-09-04T11:49:42.283Z,2.10
2022-09-04T11:50:41.777Z,3.20
2022-09-04T11:51:41.815Z,2.90
2022-09-04T11:52:42.848Z,3.30
2022-09-04T11:53:41.978Z,2.30
2022-09-04T11:54:41.747Z,3.40
2022-09-04T11:55:41.750Z,3.70
2022-09-04T11:56:41.721Z,2.60
2022-09-04T11:57:41.722Z,2.90
2022-09-04T11:58:41.721Z,3.10
2022-09-04T11:59:41.719Z,3.20
2022-09-04T12:00:42.017Z,2.30
2022-09-04T12:01:47.068Z,3.30
2022-09-04T12:02:43.455Z,1.80
2022-09-04T12:03:42.394Z,3.50
2022-09-04T12:04:42.471Z,2.40
2022-09-04T12:05:41.631Z,3.50
2022-09-04T12:06:42.255Z,2.10
2022-09-04T12:07:43.546Z,1.80
2022-09-04T12:08:42.349Z,2.20
2022-09-04T12:09:41.590Z,2.20
2022-09-04T12:10:41.590Z,2.50
2022-09-04T12:11:41.610Z,3.00
2022-09-04T12:12:41.531Z,2.20
2022-09-04T12:13:41.571Z,2.80
2022-09-04T12:14:41.523Z,2.80
2022-09-04T12:15:41.537Z,4.00
2022-09-04T12:16:44.426Z,2.70
2022-09-04T12:17:41.508Z,2.90
2022-09-04T12:18:42.455Z,1.90
2022-09-04T12:19:42.310Z,1.90
2022-09-04T12:20:41.741Z,2.70
2022-09-04T12:21:41.470Z,2.40
2022-09-04T12:22:41.432Z,3.20
2022-09-04T12:23:42.217Z,2.90
2022-09-04T12:24:41.401Z,2.40
2022-09-04T12:25:41.473Z,1.90
2022-09-04T12:26:51.753Z,1.80
2022-09-04T12:27:42.413Z,2.30
2022-09-04T12:28:41.389Z,2.40
2022-09-04T12:29:41.393Z,3.00
2022-09-04T12:30:41.355Z,1.80
2022-09-04T12:31:41.398Z,1.50
2022-09-04T12:32:41.314Z,2.30
2022-09-04T12:33:42.023Z,1.70
2022-09-04T12:34:41.310Z,2.80
2022-09-04T12:35:41.844Z,2.50
2022-09-04T12:36:41.274Z,3.20
2022-09-04T12:37:41.315Z,2.50
2022-09-04T12:38:41.253Z,2.00
2022-09-04T12:39:41.441Z,2.10
2022-09-04T12:40:42.092Z,3.00
2022-09-04T12:41:41.255Z,1.70
2022-09-04T12:42:41.316Z,1.50
2022-09-04T12:43:41.236Z,1.20
2022-09-04T12:44:41.952Z,1.60
2022-09-04T12:45:41.361Z,1.90
2022-09-04T12:46:42.031Z,1.60
2022-09-04T12:47:41.178Z,2.60
2022-09-04T12:48:41.180Z,2.90
2022-09-04T12:49:41.227Z,5.50
2022-09-04T12:50:41.172Z,1.20
2022-09-04T12:51:41.363Z,1.30
2022-09-04T12:52:41.576Z,1.20
2022-09-04T12:53:41.230Z,1.50
2022-09-04T12:54:41.112Z,2.00
2022-09-04T12:55:41.106Z,1.60
2022-09-04T12:56:41.261Z,2.30
2022-09-04T12:57:41.277Z,1.00
2022-09-04T12:58:41.094Z,1.40
2022-09-04T12:59:41.089Z,2.80
2022-09-04T13:00:48.525Z,1.60
2022-09-04T13:01:42.138Z,1.10
2022-09-04T13:02:41.761Z,1.40
2022-09-04T13:03:41.029Z,2.30
2022-09-04T13:04:40.978Z,2.00
2022-09-04T13:05:43.320Z,1.20
2022-09-04T13:06:42.928Z,1.70
2022-09-04T13:07:41.071Z,3.00
2022-09-04T13:08:40.954Z,1.20
2022-09-04T13:09:40.948Z,1.50
2022-09-04T13:10:41.362Z,1.50
2022-09-04T13:11:41.070Z,1.50
2022-09-04T13:12:40.900Z,2.00
2022-09-04T13:13:40.947Z,1.70
2022-09-04T13:14:40.880Z,0.80
2022-09-04T13:15:40.918Z,0.90
2022-09-04T13:16:41.012Z,1.20
2022-09-04T13:17:40.848Z,2.80
2022-09-04T13:18:40.830Z,2.70